createdAt,value
2019-06-26T00:01:10.309Z,24.70
2019-06-26T00:03:41.197Z,24.66
2019-06-26T00:06:12.499Z,23.89
2019-06-26T00:08:43.220Z,23.63
2019-06-26T00:11:13.857Z,23.52
2019-06-26T00:13:44.602Z,23.49
2019-06-26T00:16:15.272Z,23.71
2019-06-26T00:18:45.932Z,23.40
2019-06-26T00:21:16.847Z,23.20
2019-06-26T00:23:47.681Z,23.19
2019-06-26T00:26:18.412Z,23.26
2019-06-26T00:28:49.053Z,23.16
2019-06-26T00:31:19.717Z,23.25
2019-06-26T00:33:50.366Z,23.10
2019-06-26T00:36:21.021Z,22.66
2019-06-26T00:38:51.668Z,22.61
2019-06-26T00:41:22.471Z,22.80
2019-06-26T00:43:53.200Z,22.78
2019-06-26T00:46:23.961Z,22.76
2019-06-26T00:48:54.586Z,22.39
2019-06-26T00:51:25.337Z,22.18
2019-06-26T00:53:55.959Z,22.34
2019-06-26T00:56:26.685Z,22.25
2019-06-26T00:58:57.417Z,22.05
2019-06-26T01:01:28.145Z,22.07
2019-06-26T01:04:00.422Z,22.04
2019-06-26T01:06:45.690Z,22.03
2019-06-26T01:09:16.374Z,22.04
2019-06-26T01:11:47.054Z,21.69
2019-06-26T01:14:17.652Z,21.54
2019-06-26T01:16:49.389Z,21.34
2019-06-26T01:19:20.091Z,21.12
2019-06-26T01:21:50.841Z,21.31
2019-06-26T01:24:21.530Z,21.21
2019-06-26T01:26:52.448Z,21.01
2019-06-26T01:29:24.047Z,21.19
2019-06-26T01:31:54.734Z,21.22
2019-06-26T01:34:25.436Z,21.27
2019-06-26T01:36:56.106Z,21.23
2019-06-26T01:39:26.801Z,20.88
2019-06-26T01:41:57.616Z,20.96
2019-06-26T01:44:28.251Z,21.13
2019-06-26T01:46:59.062Z,20.95
2019-06-26T01:49:29.703Z,20.84
2019-06-26T01:52:00.681Z,20.98
2019-06-26T01:54:31.360Z,20.96
2019-06-26T01:57:03.119Z,20.90
2019-06-26T01:59:33.769Z,20.81
2019-06-26T02:02:04.568Z,20.68
2019-06-26T02:04:36.228Z,20.67
2019-06-26T02:07:06.930Z,20.53
2019-06-26T02:09:37.567Z,20.54
2019-06-26T02:12:08.547Z,20.47
2019-06-26T02:14:39.192Z,20.27
2019-06-26T02:17:09.861Z,20.26
2019-06-26T02:19:40.561Z,19.99
2019-06-26T02:22:11.815Z,19.87
2019-06-26T02:24:43.444Z,19.79
2019-06-26T02:27:14.125Z,19.96
2019-06-26T02:29:44.766Z,19.64
2019-06-26T02:32:15.513Z,19.23
2019-06-26T02:34:46.258Z,19.39
2019-06-26T02:37:16.995Z,19.67
2019-06-26T02:39:47.851Z,19.81
2019-06-26T02:42:18.707Z,19.63
2019-06-26T02:44:53.958Z,19.74
2019-06-26T02:47:22.019Z,19.70
2019-06-26T02:49:52.718Z,19.64
2019-06-26T02:52:24.446Z,19.40
2019-06-26T02:54:55.247Z,19.42
2019-06-26T02:57:26.011Z,19.56
2019-06-26T02:59:56.744Z,19.26
2019-06-26T03:02:27.443Z,19.27
2019-06-26T03:04:58.185Z,19.30
2019-06-26T03:07:28.923Z,19.19
2019-06-26T03:09:59.689Z,19.21
2019-06-26T03:12:30.350Z,19.03
2019-06-26T03:15:08.658Z,18.74
2019-06-26T03:17:33.445Z,18.98
2019-06-26T03:20:07.358Z,19.08
2019-06-26T03:22:38.116Z,19.19
2019-06-26T03:25:09.129Z,18.78
2019-06-26T03:27:39.806Z,18.88
2019-06-26T03:30:13.633Z,18.90
2019-06-26T03:32:44.430Z,18.65
2019-06-26T03:35:15.469Z,18.78
2019-06-26T03:37:46.226Z,18.73
2019-06-26T03:40:18.594Z,18.67
2019-06-26T03:42:49.294Z,18.94
2019-06-26T03:45:25.722Z,18.99
2019-06-26T03:47:52.735Z,18.98
2019-06-26T03:50:23.723Z,18.93
2019-06-26T03:52:54.564Z,18.75
2019-06-26T03:55:25.267Z,18.57
2019-06-26T03:57:56.055Z,18.65
2019-06-26T04:00:44.086Z,18.80
2019-06-26T04:03:14.884Z,18.94
2019-06-26T04:05:45.772Z,18.60
2019-06-26T04:08:16.486Z,18.63
2019-06-26T04:10:47.385Z,18.86
2019-06-26T04:13:18.144Z,18.79
2019-06-26T04:15:50.936Z,18.87
2019-06-26T04:18:21.151Z,19.07
2019-06-26T04:20:51.786Z,19.27
2019-06-26T04:23:22.450Z,18.89
2019-06-26T04:25:53.078Z,18.67
2019-06-26T04:28:23.785Z,18.87
2019-06-26T04:30:54.566Z,19.13
2019-06-26T04:33:25.239Z,19.50
2019-06-26T04:35:55.849Z,19.67
2019-06-26T04:38:26.588Z,19.69
2019-06-26T04:40:57.218Z,19.46
2019-06-26T04:43:28.008Z,19.41
2019-06-26T04:45:59.770Z,19.28
2019-06-26T04:48:30.429Z,19.15
2019-06-26T04:51:01.203Z,19.05
2019-06-26T04:53:31.991Z,18.94
2019-06-26T04:56:02.684Z,18.75
2019-06-26T04:58:33.414Z,18.93
2019-06-26T05:01:04.311Z,19.14
2019-06-26T05:03:34.984Z,19.09
2019-06-26T05:06:06.950Z,19.19
2019-06-26T05:08:37.589Z,19.06
2019-06-26T05:11:08.350Z,18.84
2019-06-26T05:13:39.097Z,19.05
2019-06-26T05:16:15.103Z,19.19
2019-06-26T05:18:42.318Z,19.16
2019-06-26T05:21:13.074Z,19.25
2019-06-26T05:23:43.828Z,18.98
2019-06-26T05:26:14.755Z,18.97
2019-06-26T05:28:45.430Z,19.24
2019-06-26T05:31:16.113Z,19.41
2019-06-26T05:33:47.424Z,19.43
2019-06-26T05:36:18.125Z,19.49
2019-06-26T05:38:48.741Z,19.71
2019-06-26T05:41:19.562Z,19.71
2019-06-26T05:43:50.208Z,19.83
2019-06-26T05:46:30.511Z,19.92
2019-06-26T05:48:53.312Z,19.91
2019-06-26T05:51:24.169Z,19.74
2019-06-26T05:53:54.858Z,19.92
2019-06-26T05:56:25.580Z,19.85
2019-06-26T05:58:56.434Z,19.61
2019-06-26T06:01:27.373Z,19.62
2019-06-26T06:03:59.172Z,19.49
2019-06-26T06:06:41.079Z,19.58
2019-06-26T06:09:02.577Z,19.59
2019-06-26T06:11:33.513Z,19.47
2019-06-26T06:14:04.288Z,19.62
2019-06-26T06:16:46.777Z,19.85
2019-06-26T06:19:07.478Z,19.83
2019-06-26T06:21:38.260Z,20.19
2019-06-26T06:24:10.087Z,20.16
2019-06-26T06:26:40.715Z,20.37
2019-06-26T06:29:11.395Z,20.20
2019-06-26T06:31:42.085Z,20.21
2019-06-26T06:34:12.763Z,20.26
2019-06-26T06:36:43.443Z,20.38
2019-06-26T06:39:14.184Z,20.71
2019-06-26T06:41:44.883Z,20.71
2019-06-26T06:44:15.704Z,20.58
2019-06-26T06:46:59.616Z,20.54
2019-06-26T06:49:19.011Z,20.65
2019-06-26T06:51:50.073Z,20.69
2019-06-26T06:54:20.820Z,20.74
2019-06-26T06:56:51.505Z,20.95
2019-06-26T06:59:22.639Z,20.80
2019-06-26T07:01:53.295Z,20.55
2019-06-26T07:04:23.991Z,20.69
2019-06-26T07:06:54.685Z,21.14
2019-06-26T07:09:25.488Z,21.14
2019-06-26T07:11:56.350Z,20.77
2019-06-26T07:14:27.211Z,20.93
2019-06-26T07:17:01.348Z,21.12
2019-06-26T07:19:30.489Z,21.12
2019-06-26T07:22:01.297Z,21.08
2019-06-26T07:24:32.029Z,21.28
2019-06-26T07:27:02.651Z,21.52
2019-06-26T07:29:33.399Z,21.69
2019-06-26T07:32:04.067Z,21.40
2019-06-26T07:34:34.978Z,21.43
2019-06-26T07:37:05.753Z,21.48
2019-06-26T07:39:36.676Z,20.97
2019-06-26T07:42:07.364Z,21.25
2019-06-26T07:44:38.092Z,21.38
2019-06-26T07:47:22.621Z,21.46
2019-06-26T07:49:41.837Z,21.46
2019-06-26T07:52:12.476Z,21.93
2019-06-26T07:54:43.173Z,22.18
2019-06-26T07:57:13.975Z,22.06
2019-06-26T07:59:44.635Z,21.85
2019-06-26T08:02:16.973Z,21.68
2019-06-26T08:04:47.771Z,21.54
2019-06-26T08:07:18.483Z,21.57
2019-06-26T08:09:49.352Z,21.73
2019-06-26T08:12:20.064Z,21.75
2019-06-26T08:14:50.765Z,21.80
2019-06-26T08:17:21.481Z,22.04
2019-06-26T08:19:52.146Z,22.34
2019-06-26T08:22:22.966Z,22.59
2019-06-26T08:24:53.760Z,22.55
2019-06-26T08:27:24.798Z,22.62
2019-06-26T08:29:55.784Z,22.46
2019-06-26T08:32:26.505Z,22.25
2019-06-26T08:34:57.193Z,22.08
2019-06-26T08:37:28.120Z,22.22
2019-06-26T08:39:58.817Z,22.47
2019-06-26T08:42:29.542Z,22.51
2019-06-26T08:45:00.467Z,22.56
2019-06-26T08:47:31.314Z,22.63
2019-06-26T08:50:02.535Z,22.47
2019-06-26T08:52:33.652Z,22.41
2019-06-26T08:55:08.490Z,22.76
2019-06-26T08:57:39.332Z,22.97
2019-06-26T09:00:11.882Z,23.08
2019-06-26T09:02:42.609Z,23.05
2019-06-26T09:05:14.038Z,23.22
2019-06-26T09:07:44.723Z,23.22
2019-06-26T09:10:15.836Z,23.24
2019-06-26T09:12:46.851Z,23.45
2019-06-26T09:15:17.986Z,23.78
2019-06-26T09:17:48.671Z,23.91
2019-06-26T09:20:29.772Z,24.09
2019-06-26T09:23:00.516Z,24.10
2019-06-26T09:25:31.290Z,24.29
2019-06-26T09:28:01.955Z,24.12
2019-06-26T09:30:32.839Z,24.37
2019-06-26T09:33:03.501Z,24.19
2019-06-26T09:35:35.106Z,24.15
2019-06-26T09:38:06.173Z,24.11
2019-06-26T09:40:37.039Z,23.83
2019-06-26T09:43:07.832Z,23.83
2019-06-26T09:45:38.506Z,23.87
2019-06-26T09:48:09.974Z,24.01
2019-06-26T09:50:40.707Z,24.04
2019-06-26T09:53:11.497Z,24.05
2019-06-26T09:55:42.330Z,23.96
2019-06-26T09:58:13.752Z,24.35
2019-06-26T10:00:44.577Z,24.67
2019-06-26T10:03:15.419Z,24.77
2019-06-26T10:05:46.171Z,24.89
2019-06-26T10:08:16.830Z,25.06
2019-06-26T10:10:47.808Z,24.93
2019-06-26T10:13:18.681Z,24.88
2019-06-26T10:15:49.456Z,24.93
2019-06-26T10:18:20.353Z,25.23
2019-06-26T10:20:51.061Z,25.35
2019-06-26T10:23:21.834Z,25.13
2019-06-26T10:25:53.254Z,25.21
2019-06-26T10:28:27.606Z,25.12
2019-06-26T10:30:58.229Z,25.38
2019-06-26T10:33:29.014Z,25.64
2019-06-26T10:35:59.775Z,26.18
2019-06-26T10:38:31.672Z,26.52
2019-06-26T10:41:02.473Z,26.64
2019-06-26T10:43:34.409Z,26.76
2019-06-26T10:46:06.601Z,27.18
2019-06-26T10:48:40.911Z,26.78
2019-06-26T10:51:11.650Z,26.54
2019-06-26T10:53:42.381Z,26.29
2019-06-26T10:56:13.163Z,26.47
2019-06-26T10:58:43.847Z,27.24
2019-06-26T11:01:14.671Z,27.25
2019-06-26T11:03:45.467Z,27.25
2019-06-26T11:06:16.211Z,27.26
2019-06-26T11:08:46.925Z,27.53
2019-06-26T11:11:17.594Z,27.70
2019-06-26T11:13:48.414Z,27.76
2019-06-26T11:16:19.089Z,27.83
2019-06-26T11:18:49.857Z,27.35
2019-06-26T11:21:20.556Z,27.66
2019-06-26T11:23:52.301Z,27.99
2019-06-26T11:26:23.060Z,27.41
2019-06-26T11:28:53.892Z,27.39
2019-06-26T11:31:24.658Z,27.76
2019-06-26T11:33:55.567Z,27.98
2019-06-26T11:36:26.250Z,27.47
2019-06-26T11:38:57.001Z,27.99
2019-06-26T11:41:28.786Z,28.12
2019-06-26T11:43:59.738Z,28.11
2019-06-26T11:46:30.467Z,27.93
2019-06-26T11:49:01.105Z,28.18
2019-06-26T11:51:31.994Z,28.49
2019-06-26T11:54:02.721Z,28.15
2019-06-26T11:56:33.492Z,28.03
2019-06-26T11:59:04.509Z,27.80
2019-06-26T12:01:35.186Z,28.21
2019-06-26T12:04:06.227Z,28.33
2019-06-26T12:06:37.120Z,28.27
2019-06-26T12:09:09.643Z,27.99
2019-06-26T12:11:40.655Z,28.18
2019-06-26T12:14:11.504Z,28.38
2019-06-26T12:16:42.399Z,28.83
2019-06-26T12:19:13.156Z,28.37
2019-06-26T12:21:43.858Z,28.12
2019-06-26T12:24:14.595Z,27.99
2019-06-26T12:26:45.411Z,28.41
2019-06-26T12:29:16.015Z,28.63
2019-06-26T12:31:46.728Z,28.65
2019-06-26T12:34:17.375Z,28.70
2019-06-26T12:36:48.114Z,28.86
2019-06-26T12:39:18.835Z,29.14
2019-06-26T12:41:49.540Z,29.24
2019-06-26T12:44:20.155Z,29.41
2019-06-26T12:46:50.877Z,29.59
2019-06-26T12:49:21.496Z,29.48
2019-06-26T12:51:53.128Z,29.08
2019-06-26T12:54:23.836Z,29.09
2019-06-26T12:56:54.879Z,29.31
2019-06-26T12:59:25.613Z,29.35
2019-06-26T13:01:56.562Z,29.16
2019-06-26T13:04:27.259Z,28.56
2019-06-26T13:06:59.062Z,29.05
2019-06-26T13:09:29.835Z,29.06
2019-06-26T13:12:00.576Z,28.82
2019-06-26T13:14:31.199Z,28.70
2019-06-26T13:17:02.132Z,28.61
2019-06-26T13:19:32.931Z,29.02
2019-06-26T13:22:03.588Z,29.06
2019-06-26T13:24:34.487Z,28.76
2019-06-26T13:27:05.345Z,28.14
2019-06-26T13:29:36.018Z,28.32
2019-06-26T13:32:07.369Z,28.38
2019-06-26T13:34:38.078Z,28.25
2019-06-26T13:37:08.724Z,28.08
2019-06-26T13:39:39.379Z,28.57
2019-06-26T13:42:10.784Z,28.57
2019-06-26T13:44:41.419Z,28.66
2019-06-26T13:47:12.150Z,28.43
2019-06-26T13:49:42.879Z,28.40
2019-06-26T13:52:13.799Z,28.73
2019-06-26T13:54:46.231Z,28.58
2019-06-26T13:57:17.029Z,28.71
2019-06-26T13:59:47.739Z,28.85
2019-06-26T14:02:19.946Z,28.58
2019-06-26T14:04:50.766Z,28.61
2019-06-26T14:07:21.529Z,28.73
2019-06-26T14:09:52.257Z,28.81
2019-06-26T14:12:23.021Z,28.70
2019-06-26T14:14:57.824Z,28.53
2019-06-26T14:17:27.232Z,28.76
2019-06-26T14:19:57.865Z,28.86
2019-06-26T14:22:28.676Z,28.76
2019-06-26T14:24:59.563Z,28.73
2019-06-26T14:27:30.231Z,28.98
2019-06-26T14:30:01.081Z,29.13
2019-06-26T14:32:31.685Z,28.99
2019-06-26T14:35:02.534Z,29.18
2019-06-26T14:37:33.306Z,29.07
2019-06-26T14:40:05.989Z,28.93
2019-06-26T14:42:36.785Z,28.89
2019-06-26T14:45:10.211Z,29.23
2019-06-26T14:47:40.828Z,29.33
2019-06-26T14:50:13.226Z,29.76
2019-06-26T14:52:45.998Z,29.23
2019-06-26T14:55:16.327Z,29.54
2019-06-26T14:57:47.013Z,29.50
2019-06-26T15:00:18.893Z,29.84
2019-06-26T15:02:49.595Z,30.21
2019-06-26T15:10:07.773Z,29.43
2019-06-26T15:13:14.938Z,29.64
2019-06-26T15:15:44.403Z,29.81
2019-06-26T15:18:13.920Z,30.10
2019-06-26T15:20:44.550Z,29.94
2019-06-26T15:26:23.459Z,30.38
2019-06-26T15:28:52.930Z,30.11
2019-06-26T15:31:22.606Z,30.27
2019-06-26T15:33:52.239Z,30.22
2019-06-26T15:36:21.685Z,30.22
2019-06-26T15:38:51.235Z,30.14
2019-06-26T15:41:20.725Z,30.34
2019-06-26T15:43:50.414Z,30.08
2019-06-26T15:46:19.978Z,30.26
2019-06-26T15:48:50.475Z,30.55
2019-06-26T15:51:21.401Z,30.22
2019-06-26T15:53:50.869Z,30.00
2019-06-26T15:56:20.382Z,30.01
2019-06-26T15:58:49.857Z,29.62
2019-06-26T16:01:19.361Z,29.56
2019-06-26T16:03:49.969Z,30.07
2019-06-26T16:06:19.521Z,30.01
2019-06-26T16:08:49.075Z,29.93
2019-06-26T16:11:19.615Z,30.01
2019-06-26T16:13:50.189Z,29.80
2019-06-26T16:16:20.234Z,29.39
2019-06-26T16:18:51.299Z,29.59
2019-06-26T16:21:21.104Z,29.34
2019-06-26T16:23:50.649Z,29.65
2019-06-26T16:26:20.253Z,29.66
2019-06-26T16:28:49.832Z,29.29
2019-06-26T16:31:19.395Z,29.54
2019-06-26T16:33:49.031Z,30.05
2019-06-26T16:36:18.496Z,29.74
2019-06-26T16:38:48.050Z,29.91
2019-06-26T16:41:17.689Z,29.95
2019-06-26T16:43:47.207Z,29.84
2019-06-26T16:46:18.084Z,29.72
2019-06-26T16:48:47.726Z,30.08
2019-06-26T16:51:18.332Z,29.84
2019-06-26T16:53:47.835Z,29.49
2019-06-26T16:56:17.441Z,29.28
2019-06-26T16:58:47.128Z,29.21
2019-06-26T17:01:16.635Z,28.95
2019-06-26T17:03:46.078Z,29.40
2019-06-26T17:06:16.574Z,29.51
2019-06-26T17:08:46.039Z,28.86
2019-06-26T17:11:15.463Z,29.07
2019-06-26T17:13:45.036Z,28.85
2019-06-26T17:16:14.481Z,29.19
2019-06-26T17:18:44.069Z,29.34
2019-06-26T17:21:13.687Z,28.68
2019-06-26T17:23:43.262Z,28.87
2019-06-26T17:26:15.271Z,28.77
2019-06-26T17:28:44.841Z,29.06
2019-06-26T17:31:14.295Z,29.02
2019-06-26T17:33:43.712Z,28.69
2019-06-26T17:36:13.303Z,29.03
2019-06-26T17:38:42.900Z,28.92
2019-06-26T17:41:18.268Z,28.99
2019-06-26T17:43:47.855Z,29.23
2019-06-26T17:46:31.383Z,29.64
2019-06-26T17:49:01.116Z,30.08
2019-06-26T17:51:30.635Z,30.04
2019-06-26T17:54:00.313Z,29.83
2019-06-26T17:56:29.875Z,30.17
2019-06-26T17:58:59.556Z,30.04
2019-06-26T18:01:41.428Z,30.32
2019-06-26T18:04:10.972Z,29.51
2019-06-26T18:06:41.539Z,29.33
2019-06-26T18:09:12.326Z,29.13
2019-06-26T18:11:42.981Z,28.33
2019-06-26T18:14:12.523Z,27.64
2019-06-26T18:16:43.101Z,27.00
2019-06-26T18:19:12.620Z,26.70
2019-06-26T18:21:42.218Z,26.28
2019-06-26T18:24:11.916Z,26.03
2019-06-26T18:26:41.476Z,25.69
2019-06-26T18:29:11.056Z,25.47
2019-06-26T18:31:43.900Z,25.14
2019-06-26T18:34:13.464Z,25.08
2019-06-26T18:36:42.906Z,25.11
2019-06-26T18:39:12.424Z,25.09
2019-06-26T18:41:42.095Z,24.72
2019-06-26T18:44:11.563Z,24.44
2019-06-26T18:46:42.292Z,24.28
2019-06-26T18:49:11.738Z,24.35
2019-06-26T18:51:42.269Z,24.62
2019-06-26T18:54:11.852Z,24.28
2019-06-26T18:56:41.359Z,24.36
2019-06-26T18:59:10.929Z,23.99
2019-06-26T19:01:40.504Z,23.74
2019-06-26T19:04:10.057Z,23.43
2019-06-26T19:06:39.534Z,23.66
2019-06-26T19:09:09.104Z,23.42
2019-06-26T19:11:38.571Z,23.51
2019-06-26T19:14:09.590Z,23.50
2019-06-26T19:16:39.093Z,23.37
2019-06-26T19:19:12.132Z,23.31
2019-06-26T19:21:40.005Z,23.49
2019-06-26T19:24:10.777Z,23.35
2019-06-26T19:26:40.587Z,23.32
2019-06-26T19:29:10.719Z,23.25
2019-06-26T19:31:41.368Z,23.07
2019-06-26T19:34:10.895Z,23.23
2019-06-26T19:36:50.088Z,23.11
2019-06-26T19:39:11.809Z,22.85
2019-06-26T19:41:41.504Z,22.84
2019-06-26T19:44:11.026Z,22.50
2019-06-26T19:46:42.038Z,22.49
2019-06-26T19:49:11.624Z,22.50
2019-06-26T19:51:41.182Z,22.58
2019-06-26T19:54:26.129Z,22.52
2019-06-26T19:56:41.886Z,22.46
2019-06-26T19:59:11.420Z,22.16
2019-06-26T20:01:40.876Z,22.13
2019-06-26T20:04:13.422Z,22.02
2019-06-26T20:06:42.952Z,21.63
2019-06-26T20:09:12.608Z,21.63
2019-06-26T20:11:42.048Z,21.52
2019-06-26T20:14:11.672Z,21.42
2019-06-26T20:16:41.206Z,21.32
2019-06-26T20:19:10.659Z,21.32
2019-06-26T20:21:40.403Z,21.39
2019-06-26T20:24:09.980Z,21.36
2019-06-26T20:26:39.406Z,20.98
2019-06-26T20:29:08.947Z,20.99
2019-06-26T20:31:38.406Z,20.87
2019-06-26T20:34:08.075Z,20.85
2019-06-26T20:36:37.566Z,20.96
2019-06-26T20:39:07.256Z,20.85
2019-06-26T20:41:36.802Z,20.68
2019-06-26T20:44:07.073Z,20.75
2019-06-26T20:46:36.629Z,20.82
2019-06-26T20:49:06.178Z,20.77
2019-06-26T20:51:35.725Z,20.77
2019-06-26T20:54:05.879Z,20.57
2019-06-26T20:56:35.505Z,20.34
2019-06-26T20:59:05.046Z,20.45
2019-06-26T21:01:34.761Z,20.41
2019-06-26T21:04:04.886Z,20.12
2019-06-26T21:06:34.559Z,20.20
2019-06-26T21:09:04.998Z,20.40
2019-06-26T21:11:34.757Z,20.30
2019-06-26T21:14:04.924Z,20.06
2019-06-26T21:16:34.433Z,20.03
2019-06-26T21:19:04.037Z,19.95
2019-06-26T21:21:33.493Z,19.50
2019-06-26T21:24:03.278Z,19.29
2019-06-26T21:26:32.715Z,19.20
2019-06-26T21:29:02.182Z,19.08
2019-06-26T21:31:31.933Z,19.05
2019-06-26T21:34:01.487Z,19.12
2019-06-26T21:36:31.072Z,18.73
2019-06-26T21:39:00.557Z,18.69
2019-06-26T21:41:31.468Z,18.79
2019-06-26T21:44:00.964Z,18.67
2019-06-26T21:46:30.398Z,18.49
2019-06-26T21:49:00.941Z,18.57
2019-06-26T21:51:30.527Z,18.51
2019-06-26T21:54:00.083Z,18.44
2019-06-26T21:56:47.077Z,18.16
2019-06-26T21:59:34.400Z,17.96
2019-06-26T22:02:22.022Z,18.07
2019-06-26T22:04:50.784Z,18.13
2019-06-26T22:07:27.766Z,18.01
2019-06-26T22:09:58.934Z,17.85
2019-06-26T22:12:28.503Z,17.66
2019-06-26T22:14:58.009Z,17.82
2019-06-26T22:17:27.748Z,17.87
2019-06-26T22:19:57.310Z,17.97
2019-06-26T22:22:26.772Z,17.88
2019-06-26T22:24:56.348Z,17.82
2019-06-26T22:27:26.968Z,17.72
2019-06-26T22:29:56.450Z,17.68
2019-06-26T22:32:25.930Z,17.75
2019-06-26T22:34:55.455Z,17.64
2019-06-26T22:37:24.996Z,17.52
2019-06-26T22:39:54.571Z,17.49
2019-06-26T22:42:24.057Z,17.62
2019-06-26T22:44:53.661Z,17.44
2019-06-26T22:47:23.230Z,17.51
2019-06-26T22:49:52.745Z,17.45
2019-06-26T22:52:22.312Z,17.33
2019-06-26T22:54:51.910Z,17.44
2019-06-26T22:57:21.392Z,17.34
2019-06-26T22:59:51.105Z,17.08
2019-06-26T23:02:20.608Z,17.26
2019-06-26T23:04:50.188Z,17.12
2019-06-26T23:07:19.699Z,17.25
2019-06-26T23:09:49.210Z,17.24
2019-06-26T23:12:18.820Z,17.04
2019-06-26T23:15:00.366Z,16.91
2019-06-26T23:17:29.885Z,16.77
2019-06-26T23:19:59.354Z,16.92
2019-06-26T23:22:29.137Z,16.95
2019-06-26T23:24:58.564Z,16.89
2019-06-26T23:27:28.076Z,16.98
2019-06-26T23:29:57.535Z,17.01
2019-06-26T23:32:27.037Z,17.16
2019-06-26T23:34:57.557Z,16.84
2019-06-26T23:37:27.024Z,16.89
2019-06-26T23:39:56.834Z,17.05
2019-06-26T23:42:26.385Z,17.08
2019-06-26T23:44:55.898Z,16.92
2019-06-26T23:47:25.417Z,17.15
2019-06-26T23:49:54.912Z,17.21
2019-06-26T23:52:24.434Z,17.34
2019-06-26T23:54:53.960Z,17.41
2019-06-26T23:57:23.469Z,17.63
2019-06-26T23:59:52.903Z,17.49
